Accueil
METAR-TAF:

METAR-TAF

Aéroports :

Nuiqsut, Alaska, États-Unis

latitude: 70-12-36N, longitude: 151-00-20W, altitude: 12 m

Observation

Le bulletin a été fait il y a 16 minutes, à 07:53 UTC
Vent 7 kt de sud-ouest
Température -21°C
Humidité 84%
Pression 1022 hPa
Visibilité: 12.9 km
Ciel couvert à une hauteur de 1300 ft
inconnu

METAR: PAQT 060753Z AUTO 22007KT 8SM UP OVC013 M21/M23 A3017 RMK AO2 UPB20 SLP219 T12111228 TSNO PNO

Heure: 23:09 (08:09 UTC)

Prévision

Le bulletin a été fait il y a 2 heures et 39 minutes, à 05:30 UTC
Prévision valable du 06 à 06 UTC au 07 à 06 UTC
Vent 5 kt de sud-ouest
Visibilité: 10 km
Ciel couvert à une hauteur de 1500 ft

TAF: PAQT 060530Z 0606/0706 23005KT P6SM OVC015

Observations et prévisions météorologiques de plus de 4000 aéroports (messages METAR et TAF).

Les stations disponibles sont représentées par des disques jaunes et rouges sur la carte.

Passer la souris dessus pour voir le nom de la station.

Cliquer dessus pour voir les observations et prévisions météorologiques.

Pour changer de carte: cliquez sur les boutons verts avec une croix noire pour zoomer, sur le bouton vert avec un tiret pour effectuer un zoom arrière, ou sur les flèches vertes pour les cartes adjacentes.


METAR-TAF: